sensor_id;sensor_type;location;lat;lon;timestamp;temperature;humidity
50162;DHT22;36061;48.116;11.612;2023-07-31T00:00:19;17.90;99.90
50162;DHT22;36061;48.116;11.612;2023-07-31T00:02:48;17.90;99.90
50162;DHT22;36061;48.116;11.612;2023-07-31T00:05:15;17.90;99.90
50162;DHT22;36061;48.116;11.612;2023-07-31T00:07:43;17.80;99.90
50162;DHT22;36061;48.116;11.612;2023-07-31T00:10:10;17.80;99.90
50162;DHT22;36061;48.116;11.612;2023-07-31T00:12:38;17.70;99.90
50162;DHT22;36061;48.116;11.612;2023-07-31T00:15:06;17.80;99.90
50162;DHT22;36061;48.116;11.612;2023-07-31T00:17:34;17.70;99.90
50162;DHT22;36061;48.116;11.612;2023-07-31T00:20:03;17.70;99.90
50162;DHT22;36061;48.116;11.612;2023-07-31T00:22:30;17.60;99.90
50162;DHT22;36061;48.116;11.612;2023-07-31T00:24:57;17.60;99.90
50162;DHT22;36061;48.116;11.612;2023-07-31T00:27:25;17.50;99.90
50162;DHT22;36061;48.116;11.612;2023-07-31T00:29:52;17.50;99.90
50162;DHT22;36061;48.116;11.612;2023-07-31T00:32:20;17.40;99.90
50162;DHT22;36061;48.116;11.612;2023-07-31T00:34:47;17.40;99.90
50162;DHT22;36061;48.116;11.612;2023-07-31T00:37:15;17.40;99.90
50162;DHT22;36061;48.116;11.612;2023-07-31T00:39:43;17.40;99.90
50162;DHT22;36061;48.116;11.612;2023-07-31T00:42:10;17.40;99.90
50162;DHT22;36061;48.116;11.612;2023-07-31T00:44:37;17.40;99.90
50162;DHT22;36061;48.116;11.612;2023-07-31T00:47:05;17.40;99.90
50162;DHT22;36061;48.116;11.612;2023-07-31T00:49:32;17.40;99.90
50162;DHT22;36061;48.116;11.612;2023-07-31T00:51:59;17.30;99.90
50162;DHT22;36061;48.116;11.612;2023-07-31T00:54:30;17.30;99.90
50162;DHT22;36061;48.116;11.612;2023-07-31T00:56:57;17.30;99.90
50162;DHT22;36061;48.116;11.612;2023-07-31T00:59:25;17.20;99.90
50162;DHT22;36061;48.116;11.612;2023-07-31T01:01:52;17.20;99.90
50162;DHT22;36061;48.116;11.612;2023-07-31T01:04:21;17.20;99.90
50162;DHT22;36061;48.116;11.612;2023-07-31T01:06:52;17.20;99.90
50162;DHT22;36061;48.116;11.612;2023-07-31T01:09:32;17.20;99.90
50162;DHT22;36061;48.116;11.612;2023-07-31T01:12:03;17.10;99.90
50162;DHT22;36061;48.116;11.612;2023-07-31T01:14:30;17.10;99.90
50162;DHT22;36061;48.116;11.612;2023-07-31T01:16:58;17.10;99.90
50162;DHT22;36061;48.116;11.612;2023-07-31T01:19:26;17.10;99.90
50162;DHT22;36061;48.116;11.612;2023-07-31T01:22:15;17.00;99.90
50162;DHT22;36061;48.116;11.612;2023-07-31T01:24:58;17.00;99.90
50162;DHT22;36061;48.116;11.612;2023-07-31T01:27:30;17.00;99.90
50162;DHT22;36061;48.116;11.612;2023-07-31T01:30:07;17.00;99.90
50162;DHT22;36061;48.116;11.612;2023-07-31T01:32:38;17.00;99.90
50162;DHT22;36061;48.116;11.612;2023-07-31T01:35:07;17.00;99.90
50162;DHT22;36061;48.116;11.612;2023-07-31T01:37:35;17.00;99.90
50162;DHT22;36061;48.116;11.612;2023-07-31T01:40:05;17.00;99.90
50162;DHT22;36061;48.116;11.612;2023-07-31T01:42:34;17.00;99.90
50162;DHT22;36061;48.116;11.612;2023-07-31T01:45:01;17.00;99.90
50162;DHT22;36061;48.116;11.612;2023-07-31T01:47:29;16.90;99.90
50162;DHT22;36061;48.116;11.612;2023-07-31T01:49:56;17.00;99.90
50162;DHT22;36061;48.116;11.612;2023-07-31T01:52:23;17.00;99.90
50162;DHT22;36061;48.116;11.612;2023-07-31T01:54:51;17.00;99.90
50162;DHT22;36061;48.116;11.612;2023-07-31T01:57:18;17.00;99.90
50162;DHT22;36061;48.116;11.612;2023-07-31T01:59:47;17.00;99.90
50162;DHT22;36061;48.116;11.612;2023-07-31T02:02:14;17.00;99.90
50162;DHT22;36061;48.116;11.612;2023-07-31T02:04:41;17.00;99.90
50162;DHT22;36061;48.116;11.612;2023-07-31T02:07:09;17.10;99.90
50162;DHT22;36061;48.116;11.612;2023-07-31T02:09:36;17.10;99.90
50162;DHT22;36061;48.116;11.612;2023-07-31T02:12:04;17.10;99.90
50162;DHT22;36061;48.116;11.612;2023-07-31T02:14:31;17.10;99.90
50162;DHT22;36061;48.116;11.612;2023-07-31T02:17:00;17.10;99.90
50162;DHT22;36061;48.116;11.612;2023-07-31T02:19:27;17.10;99.90
50162;DHT22;36061;48.116;11.612;2023-07-31T02:21:54;17.10;99.90
50162;DHT22;36061;48.116;11.612;2023-07-31T02:24:22;17.10;99.90
50162;DHT22;36061;48.116;11.612;2023-07-31T02:26:50;17.10;99.90
50162;DHT22;36061;48.116;11.612;2023-07-31T02:29:17;17.10;99.90
50162;DHT22;36061;48.116;11.612;2023-07-31T02:31:45;17.10;99.90
50162;DHT22;36061;48.116;11.612;2023-07-31T02:34:13;17.10;99.90
50162;DHT22;36061;48.116;11.612;2023-07-31T02:36:41;17.10;99.90
50162;DHT22;36061;48.116;11.612;2023-07-31T02:39:08;17.10;99.90
50162;DHT22;36061;48.116;11.612;2023-07-31T02:41:36;17.00;99.90
50162;DHT22;36061;48.116;11.612;2023-07-31T02:44:03;17.00;99.90
50162;DHT22;36061;48.116;11.612;2023-07-31T02:46:30;17.00;99.90
50162;DHT22;36061;48.116;11.612;2023-07-31T02:48:58;17.00;99.90
50162;DHT22;36061;48.116;11.612;2023-07-31T02:51:27;17.10;99.90
50162;DHT22;36061;48.116;11.612;2023-07-31T02:53:54;17.10;99.90
50162;DHT22;36061;48.116;11.612;2023-07-31T02:56:21;17.10;99.90
50162;DHT22;36061;48.116;11.612;2023-07-31T02:58:48;17.00;99.90
50162;DHT22;36061;48.116;11.612;2023-07-31T03:01:16;17.00;99.90
50162;DHT22;36061;48.116;11.612;2023-07-31T03:03:43;17.00;99.90
50162;DHT22;36061;48.116;11.612;2023-07-31T03:06:11;17.00;99.90
50162;DHT22;36061;48.116;11.612;2023-07-31T03:08:40;16.90;99.90
50162;DHT22;36061;48.116;11.612;2023-07-31T03:11:07;16.90;99.90
50162;DHT22;36061;48.116;11.612;2023-07-31T03:13:34;16.90;99.90
50162;DHT22;36061;48.116;11.612;2023-07-31T03:16:02;16.80;99.90
50162;DHT22;36061;48.116;11.612;2023-07-31T03:18:29;16.80;99.90
50162;DHT22;36061;48.116;11.612;2023-07-31T03:20:56;16.80;99.90
50162;DHT22;36061;48.116;11.612;2023-07-31T03:23:23;16.80;99.90
50162;DHT22;36061;48.116;11.612;2023-07-31T03:26:00;16.70;99.90
50162;DHT22;36061;48.116;11.612;2023-07-31T03:28:29;16.70;99.90
50162;DHT22;36061;48.116;11.612;2023-07-31T03:30:56;16.70;99.90
50162;DHT22;36061;48.116;11.612;2023-07-31T03:33:23;16.70;99.90
50162;DHT22;36061;48.116;11.612;2023-07-31T03:35:51;16.70;99.90
50162;DHT22;36061;48.116;11.612;2023-07-31T03:38:18;16.70;99.90
50162;DHT22;36061;48.116;11.612;2023-07-31T03:40:45;16.60;99.90
50162;DHT22;36061;48.116;11.612;2023-07-31T03:43:15;16.60;99.90
50162;DHT22;36061;48.116;11.612;2023-07-31T03:45:42;16.60;99.90
50162;DHT22;36061;48.116;11.612;2023-07-31T03:48:11;16.60;99.90
50162;DHT22;36061;48.116;11.612;2023-07-31T03:50:38;16.50;99.90
50162;DHT22;36061;48.116;11.612;2023-07-31T03:53:05;16.60;99.90
50162;DHT22;36061;48.116;11.612;2023-07-31T03:55:32;16.50;99.90
50162;DHT22;36061;48.116;11.612;2023-07-31T03:57:59;16.50;99.90
50162;DHT22;36061;48.116;11.612;2023-07-31T04:00:28;16.50;99.90
50162;DHT22;36061;48.116;11.612;2023-07-31T04:02:55;16.50;99.90
50162;DHT22;36061;48.116;11.612;2023-07-31T04:05:23;16.50;99.90
50162;DHT22;36061;48.116;11.612;2023-07-31T04:07:50;16.50;99.90
50162;DHT22;36061;48.116;11.612;2023-07-31T04:10:17;16.50;99.90
50162;DHT22;36061;48.116;11.612;2023-07-31T04:12:44;16.50;99.90
50162;DHT22;36061;48.116;11.612;2023-07-31T04:15:11;16.50;99.90
50162;DHT22;36061;48.116;11.612;2023-07-31T04:17:40;16.40;99.90
50162;DHT22;36061;48.116;11.612;2023-07-31T04:20:08;16.50;99.90
50162;DHT22;36061;48.116;11.612;2023-07-31T04:22:35;16.40;99.90
50162;DHT22;36061;48.116;11.612;2023-07-31T04:25:03;16.50;99.90
50162;DHT22;36061;48.116;11.612;2023-07-31T04:27:30;16.50;99.90
50162;DHT22;36061;48.116;11.612;2023-07-31T04:29:57;16.50;99.90
50162;DHT22;36061;48.116;11.612;2023-07-31T04:32:25;16.50;99.90
50162;DHT22;36061;48.116;11.612;2023-07-31T04:34:53;16.50;99.90
50162;DHT22;36061;48.116;11.612;2023-07-31T04:37:21;16.50;99.90
50162;DHT22;36061;48.116;11.612;2023-07-31T04:39:48;16.50;99.90
50162;DHT22;36061;48.116;11.612;2023-07-31T04:42:15;16.50;99.90
50162;DHT22;36061;48.116;11.612;2023-07-31T04:44:42;16.50;99.90
50162;DHT22;36061;48.116;11.612;2023-07-31T04:47:09;16.60;99.90
50162;DHT22;36061;48.116;11.612;2023-07-31T04:49:37;16.60;99.90
50162;DHT22;36061;48.116;11.612;2023-07-31T04:52:06;16.60;99.90
50162;DHT22;36061;48.116;11.612;2023-07-31T04:54:33;16.70;99.90
50162;DHT22;36061;48.116;11.612;2023-07-31T04:57:00;16.70;99.90
50162;DHT22;36061;48.116;11.612;2023-07-31T04:59:27;16.70;99.90
50162;DHT22;36061;48.116;11.612;2023-07-31T05:01:55;16.70;99.90
50162;DHT22;36061;48.116;11.612;2023-07-31T05:04:22;16.80;99.90
50162;DHT22;36061;48.116;11.612;2023-07-31T05:06:50;16.80;99.90
50162;DHT22;36061;48.116;11.612;2023-07-31T05:09:18;17.00;99.90
50162;DHT22;36061;48.116;11.612;2023-07-31T05:11:46;17.10;99.90
50162;DHT22;36061;48.116;11.612;2023-07-31T05:14:13;17.20;99.90
50162;DHT22;36061;48.116;11.612;2023-07-31T05:16:41;17.30;99.90
50162;DHT22;36061;48.116;11.612;2023-07-31T05:19:09;17.50;99.90
50162;DHT22;36061;48.116;11.612;2023-07-31T05:21:36;17.70;99.90
50162;DHT22;36061;48.116;11.612;2023-07-31T05:24:03;18.00;99.90
50162;DHT22;36061;48.116;11.612;2023-07-31T05:26:32;18.30;99.90
50162;DHT22;36061;48.116;11.612;2023-07-31T05:28:59;18.80;99.90
50162;DHT22;36061;48.116;11.612;2023-07-31T05:31:27;19.50;99.90
50162;DHT22;36061;48.116;11.612;2023-07-31T05:33:54;20.20;99.90
50162;DHT22;36061;48.116;11.612;2023-07-31T05:36:21;20.90;99.90
50162;DHT22;36061;48.116;11.612;2023-07-31T05:38:48;21.30;99.90
50162;DHT22;36061;48.116;11.612;2023-07-31T05:41:15;21.70;99.90
50162;DHT22;36061;48.116;11.612;2023-07-31T05:43:45;22.10;99.90
50162;DHT22;36061;48.116;11.612;2023-07-31T05:46:12;22.30;99.90
50162;DHT22;36061;48.116;11.612;2023-07-31T05:48:40;22.20;99.90
50162;DHT22;36061;48.116;11.612;2023-07-31T05:51:07;22.10;99.90
50162;DHT22;36061;48.116;11.612;2023-07-31T05:53:34;21.80;99.90
50162;DHT22;36061;48.116;11.612;2023-07-31T05:56:06;21.50;99.90
50162;DHT22;36061;48.116;11.612;2023-07-31T05:58:33;21.20;99.90
50162;DHT22;36061;48.116;11.612;2023-07-31T06:01:02;20.90;99.90
50162;DHT22;36061;48.116;11.612;2023-07-31T06:03:30;20.60;99.90
50162;DHT22;36061;48.116;11.612;2023-07-31T06:05:56;20.30;99.90
50162;DHT22;36061;48.116;11.612;2023-07-31T06:08:24;20.10;99.90
50162;DHT22;36061;48.116;11.612;2023-07-31T06:10:51;20.00;99.90
50162;DHT22;36061;48.116;11.612;2023-07-31T06:13:18;19.90;99.90
50162;DHT22;36061;48.116;11.612;2023-07-31T06:15:45;19.80;99.90
50162;DHT22;36061;48.116;11.612;2023-07-31T06:18:14;19.70;99.90
50162;DHT22;36061;48.116;11.612;2023-07-31T06:20:41;19.60;99.90
50162;DHT22;36061;48.116;11.612;2023-07-31T06:23:09;19.60;99.90
50162;DHT22;36061;48.116;11.612;2023-07-31T06:25:36;19.60;99.90
50162;DHT22;36061;48.116;11.612;2023-07-31T06:28:03;19.60;99.90
50162;DHT22;36061;48.116;11.612;2023-07-31T06:30:30;19.40;99.90
50162;DHT22;36061;48.116;11.612;2023-07-31T06:32:58;19.40;99.90
50162;DHT22;36061;48.116;11.612;2023-07-31T06:35:26;19.40;99.90
50162;DHT22;36061;48.116;11.612;2023-07-31T06:37:54;19.50;99.90
50162;DHT22;36061;48.116;11.612;2023-07-31T06:40:22;19.50;99.90
50162;DHT22;36061;48.116;11.612;2023-07-31T06:42:49;19.40;99.90
50162;DHT22;36061;48.116;11.612;2023-07-31T06:45:16;19.30;99.90
50162;DHT22;36061;48.116;11.612;2023-07-31T06:47:43;19.20;99.90
50162;DHT22;36061;48.116;11.612;2023-07-31T06:50:11;19.10;99.90
50162;DHT22;36061;48.116;11.612;2023-07-31T06:52:39;19.00;99.90
50162;DHT22;36061;48.116;11.612;2023-07-31T06:55:16;19.00;99.90
50162;DHT22;36061;48.116;11.612;2023-07-31T06:57:44;19.00;99.90
50162;DHT22;36061;48.116;11.612;2023-07-31T07:00:12;19.00;99.90
50162;DHT22;36061;48.116;11.612;2023-07-31T07:02:40;19.00;99.90
50162;DHT22;36061;48.116;11.612;2023-07-31T07:05:07;19.10;99.90
50162;DHT22;36061;48.116;11.612;2023-07-31T07:07:35;19.20;99.90
50162;DHT22;36061;48.116;11.612;2023-07-31T07:10:05;19.30;99.90
50162;DHT22;36061;48.116;11.612;2023-07-31T07:12:33;19.30;99.90
50162;DHT22;36061;48.116;11.612;2023-07-31T07:15:01;19.40;99.90
50162;DHT22;36061;48.116;11.612;2023-07-31T07:17:30;19.40;99.90
50162;DHT22;36061;48.116;11.612;2023-07-31T07:19:58;19.40;99.90
50162;DHT22;36061;48.116;11.612;2023-07-31T07:22:26;19.40;99.90
50162;DHT22;36061;48.116;11.612;2023-07-31T07:24:53;19.50;99.90
50162;DHT22;36061;48.116;11.612;2023-07-31T07:27:22;19.50;99.90
50162;DHT22;36061;48.116;11.612;2023-07-31T07:29:51;19.60;99.90
50162;DHT22;36061;48.116;11.612;2023-07-31T07:32:18;19.60;99.90
50162;DHT22;36061;48.116;11.612;2023-07-31T07:34:47;19.80;99.90
50162;DHT22;36061;48.116;11.612;2023-07-31T07:37:14;19.80;99.90
50162;DHT22;36061;48.116;11.612;2023-07-31T07:39:42;19.90;99.90
50162;DHT22;36061;48.116;11.612;2023-07-31T07:42:09;20.00;99.90
50162;DHT22;36061;48.116;11.612;2023-07-31T07:44:39;20.10;99.90
50162;DHT22;36061;48.116;11.612;2023-07-31T07:47:06;20.10;99.90
50162;DHT22;36061;48.116;11.612;2023-07-31T07:49:33;20.20;99.90
50162;DHT22;36061;48.116;11.612;2023-07-31T07:52:01;20.20;99.90
50162;DHT22;36061;48.116;11.612;2023-07-31T07:54:29;20.30;99.90
50162;DHT22;36061;48.116;11.612;2023-07-31T07:56:56;20.40;99.90
50162;DHT22;36061;48.116;11.612;2023-07-31T07:59:24;20.50;99.90
50162;DHT22;36061;48.116;11.612;2023-07-31T08:01:52;20.70;99.90
50162;DHT22;36061;48.116;11.612;2023-07-31T08:04:20;20.70;99.90
50162;DHT22;36061;48.116;11.612;2023-07-31T08:06:47;20.70;99.90
50162;DHT22;36061;48.116;11.612;2023-07-31T08:09:14;20.70;99.90
50162;DHT22;36061;48.116;11.612;2023-07-31T08:11:41;20.70;99.90
50162;DHT22;36061;48.116;11.612;2023-07-31T08:14:09;20.70;99.90
50162;DHT22;36061;48.116;11.612;2023-07-31T08:16:36;20.70;99.90
50162;DHT22;36061;48.116;11.612;2023-07-31T08:19:04;20.70;99.90
50162;DHT22;36061;48.116;11.612;2023-07-31T08:21:32;20.70;99.90
50162;DHT22;36061;48.116;11.612;2023-07-31T08:23:59;20.80;99.90
50162;DHT22;36061;48.116;11.612;2023-07-31T08:26:26;20.80;99.90
50162;DHT22;36061;48.116;11.612;2023-07-31T08:28:54;21.00;99.90
50162;DHT22;36061;48.116;11.612;2023-07-31T08:31:21;21.00;99.90
50162;DHT22;36061;48.116;11.612;2023-07-31T08:33:48;21.10;99.90
50162;DHT22;36061;48.116;11.612;2023-07-31T08:36:17;21.10;99.90
50162;DHT22;36061;48.116;11.612;2023-07-31T08:38:45;21.20;99.90
50162;DHT22;36061;48.116;11.612;2023-07-31T08:41:12;21.20;99.90
50162;DHT22;36061;48.116;11.612;2023-07-31T08:43:40;21.20;99.90
50162;DHT22;36061;48.116;11.612;2023-07-31T08:46:07;21.20;99.90
50162;DHT22;36061;48.116;11.612;2023-07-31T08:48:35;21.10;99.90
50162;DHT22;36061;48.116;11.612;2023-07-31T08:51:04;21.00;99.90
50162;DHT22;36061;48.116;11.612;2023-07-31T08:53:33;21.00;99.90
50162;DHT22;36061;48.116;11.612;2023-07-31T08:56:00;20.90;99.90
50162;DHT22;36061;48.116;11.612;2023-07-31T08:58:30;20.80;99.90
50162;DHT22;36061;48.116;11.612;2023-07-31T09:00:59;20.70;99.90
50162;DHT22;36061;48.116;11.612;2023-07-31T09:03:28;20.70;99.90
50162;DHT22;36061;48.116;11.612;2023-07-31T09:05:59;20.60;99.90
50162;DHT22;36061;48.116;11.612;2023-07-31T09:08:30;20.50;99.90
50162;DHT22;36061;48.116;11.612;2023-07-31T09:11:01;20.40;99.90
50162;DHT22;36061;48.116;11.612;2023-07-31T09:13:30;20.40;99.90
50162;DHT22;36061;48.116;11.612;2023-07-31T09:15:58;20.50;99.90
50162;DHT22;36061;48.116;11.612;2023-07-31T09:18:25;20.60;99.90
50162;DHT22;36061;48.116;11.612;2023-07-31T09:21:02;20.70;99.90
50162;DHT22;36061;48.116;11.612;2023-07-31T09:23:40;20.80;99.90
50162;DHT22;36061;48.116;11.612;2023-07-31T09:26:09;20.90;99.90
50162;DHT22;36061;48.116;11.612;2023-07-31T09:28:36;21.00;99.90
50162;DHT22;36061;48.116;11.612;2023-07-31T09:31:04;21.20;99.90
50162;DHT22;36061;48.116;11.612;2023-07-31T09:33:31;21.30;99.90
50162;DHT22;36061;48.116;11.612;2023-07-31T09:35:59;21.30;99.90
50162;DHT22;36061;48.116;11.612;2023-07-31T09:38:27;21.40;99.90
50162;DHT22;36061;48.116;11.612;2023-07-31T09:40:54;21.40;99.90
50162;DHT22;36061;48.116;11.612;2023-07-31T09:43:23;21.50;99.90
50162;DHT22;36061;48.116;11.612;2023-07-31T09:45:55;21.50;99.90
50162;DHT22;36061;48.116;11.612;2023-07-31T09:48:24;21.50;99.90
50162;DHT22;36061;48.116;11.612;2023-07-31T09:50:53;21.70;99.90
50162;DHT22;36061;48.116;11.612;2023-07-31T09:53:28;21.80;99.90
50162;DHT22;36061;48.116;11.612;2023-07-31T09:55:58;21.90;99.90
50162;DHT22;36061;48.116;11.612;2023-07-31T09:58:28;21.90;99.90
50162;DHT22;36061;48.116;11.612;2023-07-31T10:00:58;22.00;99.90
50162;DHT22;36061;48.116;11.612;2023-07-31T10:03:26;22.10;99.90
50162;DHT22;36061;48.116;11.612;2023-07-31T10:05:55;22.10;99.90
50162;DHT22;36061;48.116;11.612;2023-07-31T10:08:28;22.00;99.90
50162;DHT22;36061;48.116;11.612;2023-07-31T10:10:59;21.90;99.90
50162;DHT22;36061;48.116;11.612;2023-07-31T10:13:30;21.80;99.90
50162;DHT22;36061;48.116;11.612;2023-07-31T10:15:59;21.70;99.90
50162;DHT22;36061;48.116;11.612;2023-07-31T10:18:27;21.70;99.90
50162;DHT22;36061;48.116;11.612;2023-07-31T10:20:55;21.70;99.90
50162;DHT22;36061;48.116;11.612;2023-07-31T10:23:23;21.80;99.90
50162;DHT22;36061;48.116;11.612;2023-07-31T10:25:53;21.90;99.90
50162;DHT22;36061;48.116;11.612;2023-07-31T10:28:21;21.90;99.90
50162;DHT22;36061;48.116;11.612;2023-07-31T10:30:49;22.00;99.90
50162;DHT22;36061;48.116;11.612;2023-07-31T10:33:18;22.10;99.90
50162;DHT22;36061;48.116;11.612;2023-07-31T10:35:47;22.20;99.90
50162;DHT22;36061;48.116;11.612;2023-07-31T10:38:15;22.30;99.90
50162;DHT22;36061;48.116;11.612;2023-07-31T10:40:42;22.30;99.90
50162;DHT22;36061;48.116;11.612;2023-07-31T10:43:23;22.20;99.90
50162;DHT22;36061;48.116;11.612;2023-07-31T10:45:53;22.20;99.90
50162;DHT22;36061;48.116;11.612;2023-07-31T10:48:21;22.30;99.90
50162;DHT22;36061;48.116;11.612;2023-07-31T10:50:50;22.30;99.90
50162;DHT22;36061;48.116;11.612;2023-07-31T10:53:24;22.20;99.90
50162;DHT22;36061;48.116;11.612;2023-07-31T10:55:51;22.10;99.90
50162;DHT22;36061;48.116;11.612;2023-07-31T10:58:20;22.10;99.90
50162;DHT22;36061;48.116;11.612;2023-07-31T11:00:47;22.00;99.90
50162;DHT22;36061;48.116;11.612;2023-07-31T11:03:17;22.00;99.90
50162;DHT22;36061;48.116;11.612;2023-07-31T11:05:48;22.00;99.90
50162;DHT22;36061;48.116;11.612;2023-07-31T11:08:17;22.00;99.90
50162;DHT22;36061;48.116;11.612;2023-07-31T11:10:46;22.00;99.90
50162;DHT22;36061;48.116;11.612;2023-07-31T11:13:14;22.10;99.90
50162;DHT22;36061;48.116;11.612;2023-07-31T11:15:41;22.10;99.90
50162;DHT22;36061;48.116;11.612;2023-07-31T11:18:08;22.20;99.90
50162;DHT22;36061;48.116;11.612;2023-07-31T11:20:38;22.20;99.90
50162;DHT22;36061;48.116;11.612;2023-07-31T11:23:08;22.20;99.90
50162;DHT22;36061;48.116;11.612;2023-07-31T11:25:36;22.10;99.90
50162;DHT22;36061;48.116;11.612;2023-07-31T11:28:06;22.00;99.90
50162;DHT22;36061;48.116;11.612;2023-07-31T11:30:34;22.00;99.90
50162;DHT22;36061;48.116;11.612;2023-07-31T11:33:04;22.00;99.90
50162;DHT22;36061;48.116;11.612;2023-07-31T11:35:32;22.00;99.90
50162;DHT22;36061;48.116;11.612;2023-07-31T11:38:02;22.10;99.90
50162;DHT22;36061;48.116;11.612;2023-07-31T11:40:29;22.30;99.90
50162;DHT22;36061;48.116;11.612;2023-07-31T11:42:57;22.40;99.90
50162;DHT22;36061;48.116;11.612;2023-07-31T11:45:26;22.50;99.90
50162;DHT22;36061;48.116;11.612;2023-07-31T11:47:55;22.60;99.90
50162;DHT22;36061;48.116;11.612;2023-07-31T11:50:24;22.70;99.90
50162;DHT22;36061;48.116;11.612;2023-07-31T11:52:57;22.70;99.90
50162;DHT22;36061;48.116;11.612;2023-07-31T11:55:28;22.80;99.80
50162;DHT22;36061;48.116;11.612;2023-07-31T11:57:57;22.70;99.70
50162;DHT22;36061;48.116;11.612;2023-07-31T12:00:26;22.80;99.90
50162;DHT22;36061;48.116;11.612;2023-07-31T12:02:54;22.80;99.90
50162;DHT22;36061;48.116;11.612;2023-07-31T12:05:22;22.90;99.90
50162;DHT22;36061;48.116;11.612;2023-07-31T12:07:50;22.90;99.90
50162;DHT22;36061;48.116;11.612;2023-07-31T12:10:26;23.00;99.90
50162;DHT22;36061;48.116;11.612;2023-07-31T12:13:02;23.10;99.90
50162;DHT22;36061;48.116;11.612;2023-07-31T12:15:34;23.20;99.90
50162;DHT22;36061;48.116;11.612;2023-07-31T12:18:05;23.20;99.80
50162;DHT22;36061;48.116;11.612;2023-07-31T12:20:33;23.30;99.90
50162;DHT22;36061;48.116;11.612;2023-07-31T12:23:00;23.30;99.20
50162;DHT22;36061;48.116;11.612;2023-07-31T12:25:31;23.30;99.20
50162;DHT22;36061;48.116;11.612;2023-07-31T12:28:03;23.30;98.20
50162;DHT22;36061;48.116;11.612;2023-07-31T12:30:32;23.40;97.20
50162;DHT22;36061;48.116;11.612;2023-07-31T12:33:03;23.40;97.70
50162;DHT22;36061;48.116;11.612;2023-07-31T12:35:35;23.50;98.00
50162;DHT22;36061;48.116;11.612;2023-07-31T12:38:03;23.60;97.40
50162;DHT22;36061;48.116;11.612;2023-07-31T12:40:32;23.70;96.90
50162;DHT22;36061;48.116;11.612;2023-07-31T12:43:01;23.70;96.80
50162;DHT22;36061;48.116;11.612;2023-07-31T12:45:29;23.70;96.90
50162;DHT22;36061;48.116;11.612;2023-07-31T12:47:57;23.80;96.20
50162;DHT22;36061;48.116;11.612;2023-07-31T12:50:25;23.90;96.30
50162;DHT22;36061;48.116;11.612;2023-07-31T12:52:53;23.90;96.70
50162;DHT22;36061;48.116;11.612;2023-07-31T12:55:21;24.00;97.10
50162;DHT22;36061;48.116;11.612;2023-07-31T12:57:50;24.10;96.30
50162;DHT22;36061;48.116;11.612;2023-07-31T13:00:18;24.10;96.40
50162;DHT22;36061;48.116;11.612;2023-07-31T13:02:45;24.00;96.50
50162;DHT22;36061;48.116;11.612;2023-07-31T13:05:12;23.90;96.70
50162;DHT22;36061;48.116;11.612;2023-07-31T13:07:40;23.80;96.30
50162;DHT22;36061;48.116;11.612;2023-07-31T13:10:08;23.80;96.70
50162;DHT22;36061;48.116;11.612;2023-07-31T13:12:35;23.70;96.50
50162;DHT22;36061;48.116;11.612;2023-07-31T13:15:04;23.70;96.10
50162;DHT22;36061;48.116;11.612;2023-07-31T13:17:32;23.70;96.40
50162;DHT22;36061;48.116;11.612;2023-07-31T13:19:59;23.80;96.10
50162;DHT22;36061;48.116;11.612;2023-07-31T13:22:27;23.80;96.20
50162;DHT22;36061;48.116;11.612;2023-07-31T13:24:54;23.80;95.90
50162;DHT22;36061;48.116;11.612;2023-07-31T13:27:21;23.80;95.00
50162;DHT22;36061;48.116;11.612;2023-07-31T13:29:49;23.70;95.00
50162;DHT22;36061;48.116;11.612;2023-07-31T13:32:19;23.60;95.30
50162;DHT22;36061;48.116;11.612;2023-07-31T13:34:47;23.70;95.90
50162;DHT22;36061;48.116;11.612;2023-07-31T13:37:15;23.70;96.00
50162;DHT22;36061;48.116;11.612;2023-07-31T13:39:43;23.80;95.70
50162;DHT22;36061;48.116;11.612;2023-07-31T13:42:10;23.80;95.20
50162;DHT22;36061;48.116;11.612;2023-07-31T13:44:38;23.70;95.00
50162;DHT22;36061;48.116;11.612;2023-07-31T13:47:05;23.60;95.00
50162;DHT22;36061;48.116;11.612;2023-07-31T13:49:35;23.50;95.30
50162;DHT22;36061;48.116;11.612;2023-07-31T13:52:03;23.40;95.90
50162;DHT22;36061;48.116;11.612;2023-07-31T13:54:30;23.40;96.10
50162;DHT22;36061;48.116;11.612;2023-07-31T13:56:58;23.50;96.30
50162;DHT22;36061;48.116;11.612;2023-07-31T13:59:25;23.50;95.50
50162;DHT22;36061;48.116;11.612;2023-07-31T14:01:52;23.60;95.90
50162;DHT22;36061;48.116;11.612;2023-07-31T14:04:19;23.60;96.00
50162;DHT22;36061;48.116;11.612;2023-07-31T14:06:48;23.60;96.10
50162;DHT22;36061;48.116;11.612;2023-07-31T14:09:16;23.60;95.90
50162;DHT22;36061;48.116;11.612;2023-07-31T14:11:44;23.60;95.80
50162;DHT22;36061;48.116;11.612;2023-07-31T14:14:11;23.60;96.00
50162;DHT22;36061;48.116;11.612;2023-07-31T14:16:39;23.80;96.20
50162;DHT22;36061;48.116;11.612;2023-07-31T14:19:06;23.90;96.00
50162;DHT22;36061;48.116;11.612;2023-07-31T14:21:34;23.90;96.20
50162;DHT22;36061;48.116;11.612;2023-07-31T14:24:03;24.00;96.10
50162;DHT22;36061;48.116;11.612;2023-07-31T14:26:31;24.10;96.00
50162;DHT22;36061;48.116;11.612;2023-07-31T14:28:58;24.10;95.70
50162;DHT22;36061;48.116;11.612;2023-07-31T14:31:25;23.90;93.80
50162;DHT22;36061;48.116;11.612;2023-07-31T14:33:53;23.90;93.40
50162;DHT22;36061;48.116;11.612;2023-07-31T14:36:20;23.80;93.70
50162;DHT22;36061;48.116;11.612;2023-07-31T14:38:47;23.80;94.00
50162;DHT22;36061;48.116;11.612;2023-07-31T14:41:16;23.80;93.90
50162;DHT22;36061;48.116;11.612;2023-07-31T14:43:43;23.80;94.20
50162;DHT22;36061;48.116;11.612;2023-07-31T14:46:10;23.90;94.60
50162;DHT22;36061;48.116;11.612;2023-07-31T14:48:38;23.90;94.00
50162;DHT22;36061;48.116;11.612;2023-07-31T14:51:05;23.90;94.10
50162;DHT22;36061;48.116;11.612;2023-07-31T14:53:32;24.00;94.50
50162;DHT22;36061;48.116;11.612;2023-07-31T14:55:59;24.10;94.10
50162;DHT22;36061;48.116;11.612;2023-07-31T14:58:28;24.20;94.40
50162;DHT22;36061;48.116;11.612;2023-07-31T15:00:55;24.20;94.30
50162;DHT22;36061;48.116;11.612;2023-07-31T15:03:23;24.20;94.50
50162;DHT22;36061;48.116;11.612;2023-07-31T15:05:50;24.30;94.70
50162;DHT22;36061;48.116;11.612;2023-07-31T15:08:18;24.30;94.10
50162;DHT22;36061;48.116;11.612;2023-07-31T15:10:46;24.30;93.90
50162;DHT22;36061;48.116;11.612;2023-07-31T15:13:12;24.20;93.80
50162;DHT22;36061;48.116;11.612;2023-07-31T15:15:40;24.20;93.90
50162;DHT22;36061;48.116;11.612;2023-07-31T15:18:08;24.20;93.70
50162;DHT22;36061;48.116;11.612;2023-07-31T15:20:35;24.10;94.10